Time;durP1;ratioP1;P1;durP2;ratioP2;P2;SDS_P1;SDS_P2;PMS_P1;PMS_P2;Temp;Humidity;BMP_temperature;BMP_pressure;BME280_temperature;BME280_humidity;BME280_pressure;Samples;Min_cycle;Max_cycle;Signal;HPM_P1;HPM_P2
2023/01/30 00:02:19;;;;;;;15.7;9.2;;;;;;;;;;;;;
2023/01/30 00:04:44;;;;;;;16.2;8.7;;;;;;;;;;;;;
2023/01/30 00:07:10;;;;;;;15.1;8.5;;;;;;;;;;;;;
2023/01/30 00:09:37;;;;;;;17.2;9.5;;;;;;;;;;;;;
2023/01/30 00:12:03;;;;;;;16.8;9.8;;;;;;;;;;;;;
2023/01/30 00:14:31;;;;;;;18.6;10.6;;;;;;;;;;;;;
2023/01/30 00:17:02;;;;;;;18.2;10.3;;;;;;;;;;;;;
2023/01/30 00:19:32;;;;;;;16.3;9.7;;;;;;;;;;;;;
2023/01/30 00:21:58;;;;;;;16.7;9.9;;;;;;;;;;;;;
2023/01/30 00:24:31;;;;;;;17;9.8;;;;;;;;;;;;;
2023/01/30 00:27:04;;;;;;;16.5;10.2;;;;;;;;;;;;;
2023/01/30 00:29:31;;;;;;;19.7;10;;;;;;;;;;;;;
2023/01/30 00:31:56;;;;;;;17.1;9.5;;;;;;;;;;;;;
2023/01/30 00:34:24;;;;;;;18;10.5;;;;;;;;;;;;;
2023/01/30 00:36:49;;;;;;;20;10.1;;;;;;;;;;;;;
2023/01/30 00:39:17;;;;;;;18.4;9.9;;;;;;;;;;;;;
2023/01/30 00:48:58;;;;;;;20.3;10.7;;;;;;;;;;;;;
2023/01/30 00:51:23;;;;;;;16.9;8.7;;;;;;;;;;;;;
2023/01/30 00:53:48;;;;;;;15.3;8.6;;;;;;;;;;;;;
2023/01/30 00:56:14;;;;;;;17.1;8.5;;;;;;;;;;;;;
2023/01/30 00:58:38;;;;;;;18.8;9.4;;;;;;;;;;;;;
2023/01/30 01:01:04;;;;;;;16.8;8.4;;;;;;;;;;;;;
2023/01/30 01:03:30;;;;;;;11.8;7.2;;;;;;;;;;;;;
2023/01/30 01:05:55;;;;;;;14.6;7.7;;;;;;;;;;;;;
2023/01/30 01:08:21;;;;;;;11.5;7.1;;;;;;;;;;;;;
2023/01/30 01:10:46;;;;;;;10.9;6.5;;;;;;;;;;;;;
2023/01/30 01:13:11;;;;;;;10.1;6.7;;;;;;;;;;;;;
2023/01/30 01:15:36;;;;;;;12;6.5;;;;;;;;;;;;;
2023/01/30 01:18:03;;;;;;;13.4;6.6;;;;;;;;;;;;;
2023/01/30 01:20:28;;;;;;;12.3;6.5;;;;;;;;;;;;;
2023/01/30 01:22:55;;;;;;;13.1;7.2;;;;;;;;;;;;;
2023/01/30 01:25:20;;;;;;;11.8;6.6;;;;;;;;;;;;;
2023/01/30 01:27:45;;;;;;;11.3;6.1;;;;;;;;;;;;;
2023/01/30 01:30:10;;;;;;;11.8;6.4;;;;;;;;;;;;;
2023/01/30 01:32:38;;;;;;;9.9;6.1;;;;;;;;;;;;;
2023/01/30 01:35:03;;;;;;;10.5;6.1;;;;;;;;;;;;;
2023/01/30 01:37:29;;;;;;;16.6;6.3;;;;;;;;;;;;;
2023/01/30 01:42:19;;;;;;;10.4;6;;;;;;;;;;;;;
2023/01/30 01:44:44;;;;;;;10.5;5.8;;;;;;;;;;;;;
2023/01/30 01:47:09;;;;;;;8.6;5.8;;;;;;;;;;;;;
2023/01/30 01:49:36;;;;;;;11.3;5.7;;;;;;;;;;;;;
2023/01/30 01:52:02;;;;;;;8.8;5.8;;;;;;;;;;;;;
2023/01/30 01:54:27;;;;;;;9.9;5.3;;;;;;;;;;;;;
2023/01/30 01:56:52;;;;;;;10.1;5.8;;;;;;;;;;;;;
2023/01/30 01:59:18;;;;;;;8.3;5.2;;;;;;;;;;;;;
2023/01/30 02:01:43;;;;;;;9.4;5.5;;;;;;;;;;;;;
2023/01/30 02:04:09;;;;;;;10.6;5.3;;;;;;;;;;;;;
2023/01/30 02:06:34;;;;;;;8.6;4.9;;;;;;;;;;;;;
2023/01/30 02:08:59;;;;;;;7.4;4.7;;;;;;;;;;;;;
2023/01/30 02:11:26;;;;;;;11.8;8.5;;;;;;;;;;;;;
2023/01/30 02:13:51;;;;;;;9.9;8;;;;;;;;;;;;;
2023/01/30 02:16:17;;;;;;;9.5;5.7;;;;;;;;;;;;;
2023/01/30 02:18:42;;;;;;;9.7;6.9;;;;;;;;;;;;;
2023/01/30 02:21:08;;;;;;;7.5;4.6;;;;;;;;;;;;;
2023/01/30 02:23:34;;;;;;;8;5.2;;;;;;;;;;;;;
2023/01/30 02:25:58;;;;;;;8.5;5.2;;;;;;;;;;;;;
2023/01/30 02:28:24;;;;;;;8.3;5;;;;;;;;;;;;;
2023/01/30 02:32:18;;;;;;;8.4;5.3;;;;;;;;;;;;;
2023/01/30 02:34:43;;;;;;;8.6;5;;;;;;;;;;;;;
2023/01/30 02:37:08;;;;;;;8.7;6.1;;;;;;;;;;;;;
2023/01/30 02:39:33;;;;;;;6.1;4.8;;;;;;;;;;;;;
2023/01/30 02:41:58;;;;;;;7.5;4.4;;;;;;;;;;;;;
2023/01/30 02:44:26;;;;;;;8.2;4.5;;;;;;;;;;;;;
2023/01/30 02:46:51;;;;;;;6.8;4.2;;;;;;;;;;;;;
2023/01/30 02:49:16;;;;;;;8.2;5.2;;;;;;;;;;;;;
2023/01/30 02:51:41;;;;;;;9.2;4.9;;;;;;;;;;;;;
2023/01/30 02:54:06;;;;;;;7.6;4.5;;;;;;;;;;;;;
2023/01/30 02:56:31;;;;;;;8.9;4.7;;;;;;;;;;;;;
2023/01/30 02:58:56;;;;;;;8.1;4.9;;;;;;;;;;;;;
2023/01/30 03:01:22;;;;;;;10.4;5.1;;;;;;;;;;;;;
2023/01/30 03:03:47;;;;;;;10;5.6;;;;;;;;;;;;;
2023/01/30 03:06:13;;;;;;;10.6;5.6;;;;;;;;;;;;;
2023/01/30 03:08:38;;;;;;;9;4.8;;;;;;;;;;;;;
2023/01/30 03:11:03;;;;;;;10.6;5.5;;;;;;;;;;;;;
2023/01/30 03:13:30;;;;;;;9.9;4.6;;;;;;;;;;;;;
2023/01/30 03:15:56;;;;;;;6.4;4.3;;;;;;;;;;;;;
2023/01/30 03:18:23;;;;;;;7.6;4.4;;;;;;;;;;;;;
2023/01/30 03:20:48;;;;;;;9.3;4.6;;;;;;;;;;;;;
2023/01/30 03:23:14;;;;;;;8.9;5.1;;;;;;;;;;;;;
2023/01/30 03:25:40;;;;;;;8.3;4.5;;;;;;;;;;;;;
2023/01/30 03:28:05;;;;;;;7.8;4.7;;;;;;;;;;;;;
2023/01/30 03:30:30;;;;;;;7;4.4;;;;;;;;;;;;;
2023/01/30 03:32:56;;;;;;;9.1;4.7;;;;;;;;;;;;;
2023/01/30 03:35:22;;;;;;;7.2;4.3;;;;;;;;;;;;;
2023/01/30 03:37:47;;;;;;;7.6;4.6;;;;;;;;;;;;;
2023/01/30 03:40:17;;;;;;;7.2;3.9;;;;;;;;;;;;;
2023/01/30 03:42:46;;;;;;;6.6;4.1;;;;;;;;;;;;;
2023/01/30 03:45:11;;;;;;;7.5;4.3;;;;;;;;;;;;;
2023/01/30 03:47:37;;;;;;;5.9;3.6;;;;;;;;;;;;;
2023/01/30 03:50:02;;;;;;;7.9;4.2;;;;;;;;;;;;;
2023/01/30 03:52:29;;;;;;;5.3;3.5;;;;;;;;;;;;;
2023/01/30 03:54:54;;;;;;;7.6;4.2;;;;;;;;;;;;;
2023/01/30 03:57:19;;;;;;;7.1;4.2;;;;;;;;;;;;;
2023/01/30 03:59:44;;;;;;;6.1;3.8;;;;;;;;;;;;;
2023/01/30 04:02:33;;;;;;;7.2;4.2;;;;;;;-5.51;88.3252;941.5328;;;;
2023/01/30 04:05:07;;;;;;;6.5;4;;;;;;;-5.4;87.66797;941.4905;;;;
2023/01/30 04:07:39;;;;;;;7.6;4.4;;;;;;;-5.47;87.33203;941.4434;;;;
2023/01/30 04:10:14;;;;;;;7.5;4.4;;;;;;;-5.48;87.29883;941.5144;;;;
2023/01/30 04:12:38;;;;;;;8.9;4.7;;;;;;;-5.55;87.29688;941.418;;;;
2023/01/30 04:15:06;;;;;;;7;4.2;;;;;;;-5.59;87.38477;941.4059;;;;
2023/01/30 04:17:38;;;;;;;7.1;4.4;;;;;;;-5.6;87.78027;941.4189;;;;
2023/01/30 04:20:07;;;;;;;7.4;4.5;;;;;;;-5.55;87.86621;941.4419;;;;
2023/01/30 04:22:36;;;;;;;8.4;4.4;;;;;;;-5.43;87.2959;941.3067;;;;
2023/01/30 04:25:02;;;;;;;9.5;4.7;;;;;;;-5.48;86.74707;941.4581;;;;
2023/01/30 04:27:31;;;;;;;5.4;3.6;;;;;;;-5.38;86.85645;941.3722;;;;
2023/01/30 04:30:00;;;;;;;5.1;3.3;;;;;;;-5.35;87.02832;941.406;;;;
2023/01/30 04:32:36;;;;;;;6.6;3.9;;;;;;;-5.18;86.75488;941.4381;;;;
2023/01/30 04:35:05;;;;;;;5.5;3.7;;;;;;;-5.31;85.98047;941.5009;;;;
2023/01/30 04:37:31;;;;;;;7.6;3.4;;;;;;;-5.28;85.3916;941.4444;;;;
2023/01/30 04:39:58;;;;;;;5.4;3.4;;;;;;;-5.35;85.02734;941.498;;;;
2023/01/30 04:42:23;;;;;;;5.8;3.8;;;;;;;-5.39;85.30566;941.5344;;;;
2023/01/30 04:44:50;;;;;;;6.5;4.1;;;;;;;-5.34;86.02051;941.4796;;;;
2023/01/30 04:47:15;;;;;;;6.7;4.3;;;;;;;-5.35;86.39063;941.5302;;;;
2023/01/30 04:49:42;;;;;;;7.2;4.3;;;;;;;-5.39;86.97754;941.525;;;;
2023/01/30 04:52:09;;;;;;;8;4.2;;;;;;;-5.24;87.1416;941.5067;;;;
2023/01/30 04:54:34;;;;;;;7.2;3.9;;;;;;;-5.09;87.5;941.4391;;;;
2023/01/30 04:57:03;;;;;;;5.7;3.3;;;;;;;-4.95;87.70605;941.4952;;;;
2023/01/30 04:59:28;;;;;;;5.3;3.3;;;;;;;-4.8;87.60645;941.507;;;;
2023/01/30 05:01:57;;;;;;;5.8;3.6;;;;;;;-4.65;87.26367;941.4805;;;;
2023/01/30 05:04:27;;;;;;;4.8;3.2;;;;;;;-4.62;86.81836;941.5344;;;;
2023/01/30 05:06:56;;;;;;;4.8;2.9;;;;;;;-4.59;86.69141;941.4441;;;;
2023/01/30 05:09:21;;;;;;;4.7;3;;;;;;;-4.4;85.99219;941.6306;;;;
2023/01/30 05:11:50;;;;;;;9.2;4.7;;;;;;;-4.41;85.39551;941.7589;;;;
2023/01/30 05:14:16;;;;;;;10.1;6;;;;;;;-4.55;85.42285;941.7033;;;;
2023/01/30 05:16:46;;;;;;;9.1;4.6;;;;;;;-4.58;85.74512;941.7333;;;;
2023/01/30 05:19:15;;;;;;;6.8;4.2;;;;;;;-4.65;85.74219;941.4406;;;;
2023/01/30 05:21:40;;;;;;;6.7;4.2;;;;;;;-4.78;86.39844;941.5447;;;;
2023/01/30 05:24:09;;;;;;;8.5;5.3;;;;;;;-4.75;86.66895;941.4742;;;;
2023/01/30 05:26:34;;;;;;;8.7;4.4;;;;;;;-4.59;86.20605;941.2824;;;;
2023/01/30 05:29:02;;;;;;;8.6;6.4;;;;;;;-4.46;85.4502;941.4846;;;;
2023/01/30 05:31:27;;;;;;;8.5;4.8;;;;;;;-4.36;84.94141;941.55;;;;
2023/01/30 05:33:52;;;;;;;7.1;4.3;;;;;;;-4.28;84.5625;941.4908;;;;
2023/01/30 05:36:23;;;;;;;6.9;4.4;;;;;;;-4.39;84.10938;941.294;;;;
2023/01/30 05:38:52;;;;;;;6.2;3.7;;;;;;;-4.72;85.36328;941.3129;;;;
2023/01/30 05:41:17;;;;;;;10.8;6.9;;;;;;;-4.76;85.99512;941.3414;;;;
2023/01/30 05:43:46;;;;;;;92.2;42.7;;;;;;;-4.93;86.41309;941.1998;;;;
2023/01/30 05:46:14;;;;;;;35.4;19;;;;;;;-4.86;86.73633;941.1688;;;;
2023/01/30 05:48:39;;;;;;;78.7;38.7;;;;;;;-4.8;86.52734;941.1553;;;;
2023/01/30 05:51:06;;;;;;;11.2;6.6;;;;;;;-4.81;86.10645;941.176;;;;
2023/01/30 05:53:33;;;;;;;11.2;5.5;;;;;;;-4.87;85.75195;940.9761;;;;
2023/01/30 05:56:00;;;;;;;8.1;5;;;;;;;-4.93;86.03809;940.8833;;;;
2023/01/30 05:58:25;;;;;;;6.9;4.5;;;;;;;-5.04;86.37695;940.89;;;;
2023/01/30 06:00:53;;;;;;;7.3;4.6;;;;;;;-5.05;86.7168;940.9088;;;;
2023/01/30 06:03:18;;;;;;;8;4.7;;;;;;;-5.1;86.78418;940.9528;;;;
2023/01/30 06:05:45;;;;;;;7.4;4.5;;;;;;;-5.1;86.25391;940.8701;;;;
2023/01/30 06:08:11;;;;;;;6.5;4.3;;;;;;;-5.21;86.61914;940.9094;;;;
2023/01/30 06:10:36;;;;;;;8.1;5.1;;;;;;;-5.3;86.96094;941.0497;;;;
2023/01/30 06:13:02;;;;;;;8.1;4.8;;;;;;;-5.32;87.43262;941.0486;;;;
2023/01/30 06:15:30;;;;;;;5.7;3.8;;;;;;;-5.34;87.99805;941.0131;;;;
2023/01/30 06:17:59;;;;;;;8.5;4.8;;;;;;;-5.32;87.82813;940.8762;;;;
2023/01/30 06:20:29;;;;;;;10.4;6.6;;;;;;;-5.32;87.74902;940.9442;;;;
2023/01/30 06:22:54;;;;;;;9.8;5.5;;;;;;;-5.42;88.02734;940.9767;;;;
2023/01/30 06:25:21;;;;;;;11.1;7.6;;;;;;;-5.46;88.5127;941.0002;;;;
2023/01/30 06:27:46;;;;;;;10.5;6.5;;;;;;;-5.36;88.03906;940.963;;;;
2023/01/30 06:30:14;;;;;;;325.9;105.8;;;;;;;-5.44;88.15332;940.9423;;;;
2023/01/30 06:32:40;;;;;;;8.7;5.5;;;;;;;-5.52;88.49902;940.9364;;;;
2023/01/30 06:35:07;;;;;;;77.7;27.2;;;;;;;-5.62;88.77441;940.9001;;;;
2023/01/30 06:37:32;;;;;;;14.4;9.1;;;;;;;-5.64;89.44141;940.9127;;;;
2023/01/30 06:39:59;;;;;;;702;292;;;;;;;-5.49;89.40625;940.8322;;;;
2023/01/30 06:42:24;;;;;;;55.6;23.9;;;;;;;-5.38;89.56152;940.9144;;;;
2023/01/30 06:44:54;;;;;;;161.4;63;;;;;;;-5.51;89.89746;940.723;;;;
2023/01/30 06:47:19;;;;;;;212.8;90.4;;;;;;;-5.51;90.68848;940.7467;;;;
2023/01/30 06:49:48;;;;;;;13.9;9.1;;;;;;;-5.39;90.72754;940.6912;;;;
2023/01/30 06:52:13;;;;;;;17.7;14.9;;;;;;;-5.3;89.57031;940.7542;;;;
2023/01/30 06:54:38;;;;;;;12.1;10;;;;;;;-5.42;88.59863;940.8361;;;;
2023/01/30 06:57:03;;;;;;;6.6;4.3;;;;;;;-5.32;88.52148;940.6814;;;;
2023/01/30 06:59:33;;;;;;;6.3;4.7;;;;;;;-5.21;88.83008;940.7651;;;;
2023/01/30 07:01:58;;;;;;;6.9;4.5;;;;;;;-4.99;88.98828;940.7592;;;;
2023/01/30 07:04:23;;;;;;;11.8;7.1;;;;;;;-4.76;88.47266;940.8186;;;;
2023/01/30 07:06:49;;;;;;;15.6;9.6;;;;;;;-4.52;87.54395;940.8187;;;;
2023/01/30 07:09:14;;;;;;;7.8;4;;;;;;;-4.56;86.41211;940.8113;;;;
2023/01/30 07:11:42;;;;;;;7.9;5;;;;;;;-4.48;86.46191;940.7852;;;;
2023/01/30 07:14:07;;;;;;;6.9;4.3;;;;;;;-4.32;86.33984;940.6964;;;;
2023/01/30 07:16:32;;;;;;;10.1;4.5;;;;;;;-4.43;86.37207;940.81;;;;
2023/01/30 07:19:02;;;;;;;5.8;3.6;;;;;;;-4.44;86.50098;940.8456;;;;
2023/01/30 07:21:32;;;;;;;8.6;6.7;;;;;;;-4.2;86.46484;940.8577;;;;
2023/01/30 07:23:58;;;;;;;7;4.3;;;;;;;-3.95;86.22852;940.8047;;;;
2023/01/30 07:26:22;;;;;;;6.7;4.5;;;;;;;-3.89;85.25977;940.88;;;;
2023/01/30 07:28:49;;;;;;;6.9;4.6;;;;;;;-3.86;84.82324;940.8917;;;;
2023/01/30 07:31:14;;;;;;;11.6;6.9;;;;;;;-3.61;84.77539;941.0233;;;;
2023/01/30 07:33:41;;;;;;;11.1;7.2;;;;;;;-3.46;84.25391;941.1404;;;;
2023/01/30 07:36:06;;;;;;;13.8;7.1;;;;;;;-3.34;83.75684;941.2166;;;;
2023/01/30 07:38:36;;;;;;;16.3;8.2;;;;;;;-3.17;83.27148;941.3732;;;;
2023/01/30 07:41:06;;;;;;;13.7;7.2;;;;;;;-3.64;82.42871;941.4409;;;;
2023/01/30 07:43:31;;;;;;;8.7;4.9;;;;;;;-3.54;83.14355;941.4146;;;;
2023/01/30 07:46:02;;;;;;;8.9;5.1;;;;;;;-3.48;82.8457;941.2829;;;;
2023/01/30 07:48:27;;;;;;;8.4;4.7;;;;;;;-3.29;82.27539;941.3251;;;;
2023/01/30 07:50:55;;;;;;;8.1;4.9;;;;;;;-3.07;81.74414;941.2773;;;;
2023/01/30 07:53:19;;;;;;;9.1;6;;;;;;;-3.12;81.08105;941.1896;;;;
2023/01/30 07:55:45;;;;;;;12.1;7.4;;;;;;;-3.11;82.28809;941.0965;;;;
2023/01/30 07:58:10;;;;;;;12.7;8.5;;;;;;;-2.72;82.50879;941.0234;;;;
2023/01/30 08:00:39;;;;;;;9.5;5.2;;;;;;;-1.95;79.9873;941.1351;;;;
2023/01/30 08:03:04;;;;;;;8.5;5.2;;;;;;;-1.05;78.00391;941.1008;;;;
2023/01/30 08:05:32;;;;;;;7.8;5;;;;;;;-0.82;74.28809;941.2156;;;;
2023/01/30 08:07:57;;;;;;;9.6;6.3;;;;;;;-0.15;71.24512;941.3;;;;
2023/01/30 08:10:25;;;;;;;9.6;6.4;;;;;;;0.79;68.65625;941.1728;;;;
2023/01/30 08:12:51;;;;;;;16.6;9.3;;;;;;;0.52;66.84082;941.1911;;;;
2023/01/30 08:15:17;;;;;;;17.7;10.5;;;;;;;-0.63;70.24121;941.2439;;;;
2023/01/30 08:17:43;;;;;;;15.3;9.5;;;;;;;-0.87;71.97852;941.1936;;;;
2023/01/30 08:20:15;;;;;;;16.8;9.1;;;;;;;-1.08;73.66602;941.1838;;;;
2023/01/30 08:22:38;;;;;;;16.9;9.3;;;;;;;-1.09;74.01953;941.2375;;;;
2023/01/30 08:25:05;;;;;;;13.2;8.1;;;;;;;-0.94;73.5459;941.2881;;;;
2023/01/30 08:27:29;;;;;;;11.7;7.2;;;;;;;-0.9;73.53027;941.195;;;;
2023/01/30 08:29:59;;;;;;;14.1;9.4;;;;;;;-0.92;73.87012;941.2227;;;;
2023/01/30 08:32:24;;;;;;;10.8;6.6;;;;;;;-1.41;75.31641;941.2216;;;;
2023/01/30 08:34:50;;;;;;;9.6;6.5;;;;;;;-1.93;77.31055;941.1484;;;;
2023/01/30 08:37:15;;;;;;;12;7.8;;;;;;;-1.03;78.60742;941.1529;;;;
2023/01/30 08:39:43;;;;;;;10.1;6.1;;;;;;;-0.36;71.82227;941.0818;;;;
2023/01/30 08:42:08;;;;;;;9.4;5.7;;;;;;;0.35;70.00195;941.0224;;;;
2023/01/30 08:44:38;;;;;;;8.5;5.8;;;;;;;1.96;64.61719;940.9899;;;;
2023/01/30 08:47:06;;;;;;;9.5;6.5;;;;;;;2.59;60.01758;940.9734;;;;
2023/01/30 08:49:31;;;;;;;10.1;6.8;;;;;;;1.29;63.7998;940.9955;;;;
2023/01/30 08:52:00;;;;;;;9.9;6.5;;;;;;;-0.12;68.92188;940.993;;;;
2023/01/30 08:54:26;;;;;;;12.2;7.4;;;;;;;0.36;68.05273;941.0179;;;;
2023/01/30 08:56:53;;;;;;;9.1;5.6;;;;;;;-0.36;69.98438;940.9533;;;;
2023/01/30 08:59:19;;;;;;;9.9;6.3;;;;;;;-0.33;70.48145;941.0359;;;;
2023/01/30 09:01:51;;;;;;;6.2;4.6;;;;;;;-0.57;71.46289;940.865;;;;
2023/01/30 09:04:23;;;;;;;6.9;4.6;;;;;;;-1.5;75.18066;940.9504;;;;
2023/01/30 09:06:52;;;;;;;10.8;6.6;;;;;;;-1.63;76.30957;940.9009;;;;
2023/01/30 09:09:17;;;;;;;10.3;6.5;;;;;;;-1.26;76.24414;940.9308;;;;
2023/01/30 09:11:43;;;;;;;8.3;5;;;;;;;-1.07;75.12305;941.0067;;;;
2023/01/30 09:14:08;;;;;;;7.4;4.8;;;;;;;-0.96;75.45508;940.9931;;;;
2023/01/30 09:16:38;;;;;;;7.3;4.8;;;;;;;-0.64;74.38672;940.9994;;;;
2023/01/30 09:19:03;;;;;;;6.7;4.5;;;;;;;-0.66;73.89551;940.8068;;;;
2023/01/30 09:21:34;;;;;;;8;4.7;;;;;;;-0.85;74.46094;940.7874;;;;
2023/01/30 09:23:58;;;;;;;9.6;4.9;;;;;;;-0.81;74.72461;940.8528;;;;
2023/01/30 09:26:27;;;;;;;8.5;5.1;;;;;;;-0.55;73.79199;940.9139;;;;
2023/01/30 09:28:55;;;;;;;9.1;5.9;;;;;;;-0.35;73.44824;940.861;;;;
2023/01/30 09:31:21;;;;;;;6.8;4.7;;;;;;;-0.48;73.10352;940.8546;;;;
2023/01/30 09:33:48;;;;;;;6.3;4.2;;;;;;;-0.78;73.69531;940.8477;;;;
2023/01/30 09:36:13;;;;;;;6.5;3.8;;;;;;;-0.74;74.24707;940.8389;;;;
2023/01/30 09:38:44;;;;;;;5;3.4;;;;;;;-0.84;75.11816;940.7939;;;;
2023/01/30 09:41:17;;;;;;;4.4;3;;;;;;;-0.65;74.28613;940.9216;;;;
2023/01/30 09:43:48;;;;;;;3.4;2.6;;;;;;;-0.57;74.5332;940.758;;;;
2023/01/30 09:46:18;;;;;;;5.5;2.6;;;;;;;-0.24;73.85742;940.6375;;;;
2023/01/30 09:48:43;;;;;;;3.4;2.1;;;;;;;-0.15;71.79102;940.5394;;;;
2023/01/30 09:51:12;;;;;;;6.7;4.6;;;;;;;-0.21;72.75977;940.7299;;;;
2023/01/30 09:53:40;;;;;;;4.4;3.5;;;;;;;-0.08;72.82617;940.6814;;;;
2023/01/30 09:56:05;;;;;;;4.5;3.5;;;;;;;0.02;72.29688;940.4858;;;;
2023/01/30 09:58:30;;;;;;;3.7;2.8;;;;;;;0.18;71.5127;940.6094;;;;
2023/01/30 10:00:59;;;;;;;4.1;3;;;;;;;0.21;71.72949;940.7122;;;;
2023/01/30 10:03:30;;;;;;;4.5;3.2;;;;;;;0.53;71.19238;940.7162;;;;
2023/01/30 10:05:55;;;;;;;3.3;2.4;;;;;;;0.9;69.95996;940.6387;;;;
2023/01/30 10:08:20;;;;;;;4.7;2.4;;;;;;;1.26;67.7959;940.6082;;;;
2023/01/30 10:10:49;;;;;;;3.2;2.1;;;;;;;1.72;66.19238;940.5061;;;;
2023/01/30 10:13:16;;;;;;;2.4;1.9;;;;;;;2.18;65.11035;940.4702;;;;
2023/01/30 10:15:41;;;;;;;2.9;2.1;;;;;;;2.42;62.86133;940.5424;;;;
2023/01/30 10:18:08;;;;;;;3.6;2.2;;;;;;;2.29;63.33496;940.6376;;;;
2023/01/30 10:20:36;;;;;;;3.5;2.3;;;;;;;2.44;63.68164;940.4442;;;;
2023/01/30 10:23:04;;;;;;;3.7;2.1;;;;;;;2.69;62.02734;940.2194;;;;
2023/01/30 10:25:29;;;;;;;3.1;2.2;;;;;;;2.7;61.65918;940.1311;;;;
2023/01/30 10:27:57;;;;;;;3;2.4;;;;;;;2.85;60.85059;940.1099;;;;
2023/01/30 10:30:24;;;;;;;3.4;2.1;;;;;;;2.67;61.49609;940.1744;;;;
2023/01/30 10:32:49;;;;;;;3.1;1.9;;;;;;;2.53;62.05957;940.1014;;;;
2023/01/30 10:35:16;;;;;;;3.7;1.9;;;;;;;2.51;61.32813;940.1147;;;;
2023/01/30 10:37:46;;;;;;;2.4;1.8;;;;;;;2.45;61.52246;940.149;;;;
2023/01/30 10:40:17;;;;;;;2.9;1.8;;;;;;;2.13;62.09082;940.142;;;;
2023/01/30 10:42:45;;;;;;;3.4;2;;;;;;;1.88;63.40723;940.0009;;;;
2023/01/30 10:45:12;;;;;;;2.8;1.9;;;;;;;1.49;65.09473;940.0938;;;;
2023/01/30 10:47:36;;;;;;;2.8;1.8;;;;;;;1.62;64.21973;940.0189;;;;
2023/01/30 10:50:01;;;;;;;2.2;1.8;;;;;;;1.65;63.64258;939.9858;;;;
2023/01/30 10:52:26;;;;;;;3.1;2.1;;;;;;;1.59;64.50586;940.0739;;;;
2023/01/30 10:54:51;;;;;;;3.5;2.4;;;;;;;1.7;64.69043;939.875;;;;
2023/01/30 10:57:19;;;;;;;4.2;2.5;;;;;;;1.74;64.14746;939.8162;;;;
2023/01/30 10:59:47;;;;;;;4.2;2.6;;;;;;;1.43;65.2207;939.6642;;;;
2023/01/30 11:02:18;;;;;;;3.8;2.7;;;;;;;1.49;65.47461;939.6111;;;;
2023/01/30 11:04:45;;;;;;;4.3;2.7;;;;;;;1.5;64.78125;939.6202;;;;
2023/01/30 11:07:10;;;;;;;4.3;3;;;;;;;1.53;64.64355;939.3769;;;;
2023/01/30 11:09:35;;;;;;;3.8;2.8;;;;;;;1.66;64.91992;939.3279;;;;
2023/01/30 11:12:05;;;;;;;5.4;3.3;;;;;;;1.72;64.41309;939.3209;;;;
2023/01/30 11:14:30;;;;;;;6;3.3;;;;;;;1.7;64.6123;939.4709;;;;
2023/01/30 11:16:56;;;;;;;4.7;2.9;;;;;;;1.78;65.47363;939.6523;;;;
2023/01/30 11:19:21;;;;;;;5.3;2.8;;;;;;;1.81;65.32227;939.4595;;;;
2023/01/30 11:21:47;;;;;;;5;3.3;;;;;;;1.41;66.52441;939.4449;;;;
2023/01/30 11:24:18;;;;;;;5.3;3.1;;;;;;;1.5;66.96191;939.4011;;;;
2023/01/30 11:26:42;;;;;;;3.8;2.9;;;;;;;1.69;66.56836;939.3401;;;;
2023/01/30 11:29:08;;;;;;;6.1;3.2;;;;;;;1.66;66.24902;939.2798;;;;
2023/01/30 11:31:34;;;;;;;4.9;3.1;;;;;;;1.77;66.5918;939.313;;;;
2023/01/30 11:34:00;;;;;;;4.7;3.3;;;;;;;1.97;65.20215;939.1761;;;;
2023/01/30 11:36:25;;;;;;;5;3.3;;;;;;;1.87;65.37695;939.0223;;;;
2023/01/30 11:38:51;;;;;;;5.1;3.3;;;;;;;2.11;65.12305;939.0778;;;;
2023/01/30 11:41:16;;;;;;;4.7;3.5;;;;;;;2.18;64.99902;939.1074;;;;
2023/01/30 11:43:41;;;;;;;4.5;3.3;;;;;;;2.27;63.61426;939.1406;;;;
2023/01/30 11:46:09;;;;;;;5.5;3;;;;;;;2.4;63.31934;939.0311;;;;
2023/01/30 11:48:34;;;;;;;6.4;3.5;;;;;;;2.55;64.50586;939.0641;;;;
2023/01/30 11:51:03;;;;;;;4;2.6;;;;;;;2.76;63.37305;938.9191;;;;
2023/01/30 11:53:27;;;;;;;4.4;2.9;;;;;;;2.84;62.55371;938.9709;;;;
2023/01/30 11:55:52;;;;;;;3.9;2.8;;;;;;;2.88;62.86328;938.7941;;;;
2023/01/30 11:58:18;;;;;;;4.9;3.1;;;;;;;4.76;57.54297;938.9009;;;;
2023/01/30 12:00:43;;;;;;;5.4;2.8;;;;;;;7.22;49.48926;938.8156;;;;
2023/01/30 12:03:14;;;;;;;4.5;2.6;;;;;;;12.04;39.50488;938.6422;;;;
2023/01/30 12:05:41;;;;;;;4;2.5;;;;;;;15.63;31.78027;938.5629;;;;
2023/01/30 12:08:07;;;;;;;5;2.3;;;;;;;17.85;29.0957;938.6022;;;;
2023/01/30 12:10:32;;;;;;;3.6;2.4;;;;;;;19.43;26.41602;938.4576;;;;
2023/01/30 12:13:01;;;;;;;3.7;2.2;;;;;;;19.55;24.93066;938.4486;;;;
2023/01/30 12:15:35;;;;;;;3.1;2.4;;;;;;;18.77;26.58594;938.286;;;;
2023/01/30 12:18:00;;;;;;;4.3;2.3;;;;;;;19.88;25.01953;938.3638;;;;
2023/01/30 12:20:25;;;;;;;4.5;2.7;;;;;;;21.36;23.64063;938.3219;;;;
2023/01/30 12:22:50;;;;;;;4;2.9;;;;;;;22.35;22.29785;938.1951;;;;
2023/01/30 12:25:15;;;;;;;4.5;2.6;;;;;;;23.69;21.38867;938.1675;;;;
2023/01/30 12:27:45;;;;;;;5.8;2.9;;;;;;;24.89;19.77051;938.0804;;;;
2023/01/30 12:30:11;;;;;;;5;3.1;;;;;;;19;23.75977;938.1286;;;;
2023/01/30 12:32:36;;;;;;;5.2;3;;;;;;;20.99;23.24609;937.9352;;;;
2023/01/30 12:35:01;;;;;;;3.5;2.6;;;;;;;20.69;22.40137;938.0556;;;;
2023/01/30 12:37:26;;;;;;;2.6;2;;;;;;;19.35;24.33691;938.0911;;;;
2023/01/30 12:39:52;;;;;;;4;2.9;;;;;;;18.04;26.68164;938.0679;;;;
2023/01/30 12:42:20;;;;;;;5.1;2.9;;;;;;;14.84;29.04688;938.0803;;;;
2023/01/30 12:44:49;;;;;;;3.3;2.7;;;;;;;13.88;30.88184;938.0918;;;;
2023/01/30 12:47:16;;;;;;;3.3;2.7;;;;;;;13.07;33.21289;938.0281;;;;
2023/01/30 12:49:41;;;;;;;2.7;2.2;;;;;;;13.83;30.5332;937.9526;;;;
2023/01/30 12:52:12;;;;;;;5.6;2.7;;;;;;;14.72;30.44531;937.9141;;;;
2023/01/30 12:54:37;;;;;;;2.9;2.2;;;;;;;13.83;32.14355;937.8862;;;;
2023/01/30 12:57:03;;;;;;;3.8;2.8;;;;;;;14.58;31.11523;937.9437;;;;
2023/01/30 12:59:28;;;;;;;3.4;2.2;;;;;;;15.63;28.91406;937.7667;;;;
2023/01/30 13:01:53;;;;;;;3.3;2.2;;;;;;;17.12;27.27441;937.9337;;;;
2023/01/30 13:04:21;;;;;;;3.8;2.1;;;;;;;16.68;27.33887;937.7573;;;;
2023/01/30 13:06:50;;;;;;;2.1;1.9;;;;;;;16.23;27.55469;937.7708;;;;
2023/01/30 13:09:15;;;;;;;2.7;2;;;;;;;15.24;28.75;937.7095;;;;
2023/01/30 13:11:40;;;;;;;16.8;6.9;;;;;;;12;34.83789;937.8731;;;;
2023/01/30 13:14:05;;;;;;;7.7;3.3;;;;;;;8.99;39.85254;937.8995;;;;
2023/01/30 13:16:31;;;;;;;4.6;2.7;;;;;;;8.31;40.8584;937.3728;;;;
2023/01/30 13:18:56;;;;;;;8.6;4.4;;;;;;;6.86;44.50098;937.7611;;;;
2023/01/30 13:21:21;;;;;;;6;3.6;;;;;;;6.66;45.2041;937.6875;;;;
2023/01/30 13:23:46;;;;;;;4.5;2.8;;;;;;;6.76;44.61523;937.5511;;;;
2023/01/30 13:26:11;;;;;;;6.3;3;;;;;;;6.53;44.61426;937.6597;;;;
2023/01/30 13:28:40;;;;;;;4.4;2.5;;;;;;;6.61;44.18164;937.6206;;;;
2023/01/30 13:31:06;;;;;;;2.9;2.2;;;;;;;6.44;44.84082;937.6329;;;;
2023/01/30 13:33:31;;;;;;;3;2.3;;;;;;;6.51;43.91016;937.4226;;;;
2023/01/30 13:35:56;;;;;;;5.7;3;;;;;;;6.12;48.16406;937.5123;;;;
2023/01/30 13:38:21;;;;;;;4.3;2.8;;;;;;;5.64;48.5625;937.6082;;;;
2023/01/30 13:40:50;;;;;;;5.7;3.4;;;;;;;5.84;49.00391;937.5601;;;;
2023/01/30 13:43:15;;;;;;;3.6;1.8;;;;;;;5.96;47.83008;937.3256;;;;
2023/01/30 13:45:40;;;;;;;5;2.3;;;;;;;5.82;49.38477;937.5453;;;;
2023/01/30 13:48:06;;;;;;;3;1.6;;;;;;;5.65;48.00977;937.5145;;;;
2023/01/30 13:50:32;;;;;;;2.5;1.5;;;;;;;5.75;49.41016;937.6182;;;;
2023/01/30 13:53:01;;;;;;;1.7;1.4;;;;;;;5.7;50.09277;937.6287;;;;
2023/01/30 13:55:26;;;;;;;1.9;1.4;;;;;;;5.72;49.0459;937.6158;;;;
2023/01/30 13:57:52;;;;;;;5.8;2;;;;;;;5.58;47.94531;937.7042;;;;
2023/01/30 14:00:17;;;;;;;2.6;1.9;;;;;;;5.52;49.17969;937.731;;;;
2023/01/30 14:02:42;;;;;;;7;3.7;;;;;;;5.44;51.19141;937.7464;;;;
2023/01/30 14:05:08;;;;;;;4.3;2;;;;;;;5.35;51.44141;937.7302;;;;
2023/01/30 14:07:33;;;;;;;4;1.7;;;;;;;5.37;51.1377;937.7575;;;;
2023/01/30 14:10:00;;;;;;;2.9;1.5;;;;;;;5.3;49.83203;937.9576;;;;
2023/01/30 14:12:25;;;;;;;2.5;1.8;;;;;;;5.4;50.22754;937.8578;;;;
2023/01/30 14:14:53;;;;;;;9.1;2.4;;;;;;;5.48;50.1582;937.9891;;;;
2023/01/30 14:17:21;;;;;;;6.5;4.7;;;;;;;5.61;50.19629;937.8895;;;;
2023/01/30 14:19:46;;;;;;;3.4;2.1;;;;;;;5.7;48.32129;937.8413;;;;
2023/01/30 14:22:11;;;;;;;3.1;1.8;;;;;;;5.9;50.19629;937.8401;;;;
2023/01/30 14:24:36;;;;;;;2.8;1.4;;;;;;;6.02;48.41309;937.9058;;;;
2023/01/30 14:27:01;;;;;;;1.7;1.2;;;;;;;5.87;48.97266;937.9156;;;;
2023/01/30 14:29:27;;;;;;;2.4;1.5;;;;;;;5.95;50.82324;937.9087;;;;
2023/01/30 14:31:54;;;;;;;4.2;2;;;;;;;5.85;50.14453;937.9615;;;;
2023/01/30 14:34:21;;;;;;;4.2;1.8;;;;;;;5.83;53.01074;938.0734;;;;
2023/01/30 14:36:46;;;;;;;8.4;3.1;;;;;;;5.56;55.25781;938.1855;;;;
2023/01/30 14:39:11;;;;;;;11.7;6.1;;;;;;;4.97;54.8877;938.1605;;;;
2023/01/30 14:41:38;;;;;;;6;3.2;;;;;;;5.09;55.19629;938.188;;;;
2023/01/30 14:44:03;;;;;;;5.4;2.3;;;;;;;5.2;54.36621;938.0761;;;;
2023/01/30 14:46:33;;;;;;;3.1;1.3;;;;;;;5.38;52.15527;938.0902;;;;
2023/01/30 14:48:59;;;;;;;4.9;2;;;;;;;5.49;48.42188;938.0811;;;;
2023/01/30 14:51:26;;;;;;;3.5;1.7;;;;;;;5.59;49.45898;938.1484;;;;
2023/01/30 14:53:51;;;;;;;3;1.3;;;;;;;5.37;49.61426;938.3172;;;;
2023/01/30 14:56:20;;;;;;;1.2;0.7;;;;;;;5.76;48.15918;938.2087;;;;
2023/01/30 14:58:46;;;;;;;1.6;0.7;;;;;;;5.86;48.76758;938.2314;;;;
2023/01/30 15:01:11;;;;;;;0.9;0.7;;;;;;;5.8;48.35449;938.3892;;;;
2023/01/30 15:03:39;;;;;;;0.6;0.6;;;;;;;5.93;47.52148;938.3022;;;;
2023/01/30 15:06:01;;;;;;;2.3;0.6;;;;;;;5.89;47.48535;938.4709;;;;
2023/01/30 15:08:26;;;;;;;0.4;0.4;;;;;;;5.86;48.58691;938.4194;;;;
2023/01/30 15:10:53;;;;;;;0.8;0.3;;;;;;;5.98;49.09863;938.3686;;;;
2023/01/30 15:13:18;;;;;;;0.7;0.3;;;;;;;6.07;47.66211;938.4352;;;;
2023/01/30 15:15:48;;;;;;;0.6;0.4;;;;;;;6.14;48.37012;938.3926;;;;
2023/01/30 15:18:16;;;;;;;0.4;0.4;;;;;;;6.08;48.14941;938.3801;;;;
2023/01/30 15:20:41;;;;;;;0.6;0.5;;;;;;;6.07;48.18164;938.3259;;;;
2023/01/30 15:23:06;;;;;;;5.8;1.2;;;;;;;6.14;48.30273;938.4156;;;;
2023/01/30 15:25:31;;;;;;;1.1;0.6;;;;;;;6.17;47.41309;938.4409;;;;
2023/01/30 15:27:56;;;;;;;1.3;0.7;;;;;;;6.06;46.74609;938.5306;;;;
2023/01/30 15:30:21;;;;;;;0.9;0.8;;;;;;;6.25;49.95508;938.4955;;;;
2023/01/30 15:32:47;;;;;;;1;1;;;;;;;6.14;49.14941;938.5421;;;;
2023/01/30 15:35:19;;;;;;;2.5;1.4;;;;;;;6.13;48.59473;938.6408;;;;
2023/01/30 15:37:49;;;;;;;1.5;1.4;;;;;;;6.06;50.66699;938.6072;;;;
2023/01/30 15:40:14;;;;;;;0.9;0.9;;;;;;;5.98;52.16992;938.5676;;;;
2023/01/30 15:42:41;;;;;;;0.9;0.5;;;;;;;6.14;49.35449;938.5383;;;;
2023/01/30 15:45:14;;;;;;;0.4;0.4;;;;;;;6.16;50.40625;938.3781;;;;